Time;durP1;ratioP1;P1;durP2;ratioP2;P2;SDS_P1;SDS_P2;PMS_P1;PMS_P2;Temp;Humidity;BMP_temperature;BMP_pressure;BME280_temperature;BME280_humidity;BME280_pressure;Samples;Min_cycle;Max_cycle;Signal;HPM_P1;HPM_P2
2023/01/05 00:01:51;;;;;;;4.95;1.45;;;9.50;99.90;;;;;;4983990;28;20053;-59
2023/01/05 00:04:19;;;;;;;13.35;2.03;;;9.50;99.90;;;;;;4987368;28;20038;-57
2023/01/05 00:06:46;;;;;;;11.32;1.55;;;9.50;99.90;;;;;;4987977;28;20050;-58
2023/01/05 00:09:16;;;;;;;4.63;1.00;;;9.50;99.90;;;;;;4988380;28;20624;-60
2023/01/05 00:23:03;;;;;;;6.13;1.40;;;9.20;99.90;;;;;;4977778;28;20065;-60
2023/01/05 00:25:35;;;;;;;6.50;0.88;;;9.20;99.90;;;;;;4973374;28;20050;-61
2023/01/05 00:28:03;;;;;;;10.02;0.93;;;9.20;99.90;;;;;;4982341;28;20045;-59
2023/01/05 00:30:36;;;;;;;8.90;1.30;;;9.10;99.90;;;;;;5006501;28;20038;-63
2023/01/05 00:33:08;;;;;;;11.02;2.20;;;9.00;99.90;;;;;;4987455;28;20039;-63
2023/01/05 00:35:36;;;;;;;5.78;1.40;;;9.00;99.90;;;;;;4993287;28;20053;-58
2023/01/05 00:38:05;;;;;;;7.18;1.38;;;9.00;99.90;;;;;;4988342;28;20049;-58
2023/01/05 00:40:34;;;;;;;9.07;0.98;;;9.00;99.90;;;;;;5004160;28;20046;-59
2023/01/05 00:43:02;;;;;;;14.55;2.58;;;9.00;99.90;;;;;;4969673;28;20057;-59
2023/01/05 00:45:30;;;;;;;8.23;1.40;;;8.90;99.90;;;;;;5000603;28;20049;-58
2023/01/05 00:47:58;;;;;;;5.60;0.93;;;8.90;99.90;;;;;;4976030;28;20054;-60
2023/01/05 00:50:25;;;;;;;8.55;1.77;;;8.90;99.90;;;;;;4967603;28;20054;-58
2023/01/05 00:52:53;;;;;;;4.45;1.20;;;8.90;99.90;;;;;;4970332;28;20065;-61
2023/01/05 00:55:21;;;;;;;9.68;1.33;;;8.90;99.90;;;;;;4988940;28;20061;-59
2023/01/05 00:57:48;;;;;;;11.82;1.70;;;8.80;99.90;;;;;;4987300;28;20053;-57
2023/01/05 01:00:18;;;;;;;9.38;2.20;;;8.80;99.90;;;;;;4986167;28;20054;-59
2023/01/05 01:02:49;;;;;;;9.90;1.45;;;8.80;99.90;;;;;;4987239;28;20069;-57
2023/01/05 01:05:17;;;;;;;5.05;0.80;;;8.80;99.90;;;;;;4981649;28;20046;-57
2023/01/05 01:07:47;;;;;;;15.23;2.13;;;8.80;99.90;;;;;;4982661;28;20046;-62
2023/01/05 01:10:15;;;;;;;6.43;0.90;;;8.70;99.90;;;;;;4990419;28;20050;-63
2023/01/05 01:12:42;;;;;;;6.35;1.17;;;8.80;99.90;;;;;;4986766;28;20057;-59
2023/01/05 01:15:10;;;;;;;9.05;1.35;;;8.70;99.90;;;;;;4992358;28;20474;-61
2023/01/05 01:17:38;;;;;;;18.63;1.70;;;8.70;99.90;;;;;;4989168;28;20061;-60
2023/01/05 01:20:06;;;;;;;12.00;1.30;;;8.70;99.90;;;;;;4982888;28;20052;-62
2023/01/05 01:22:34;;;;;;;15.35;1.70;;;8.70;99.90;;;;;;4993921;28;20228;-61
2023/01/05 01:25:01;;;;;;;13.98;1.60;;;8.60;99.90;;;;;;4988343;28;20050;-60
2023/01/05 01:27:30;;;;;;;9.90;1.95;;;8.60;99.90;;;;;;4990863;28;20409;-60
2023/01/05 01:29:57;;;;;;;8.75;1.10;;;8.60;99.90;;;;;;4989939;28;20054;-59
2023/01/05 01:32:25;;;;;;;10.70;2.60;;;8.60;99.90;;;;;;4984972;28;20059;-64
2023/01/05 01:34:54;;;;;;;5.18;1.27;;;8.60;99.90;;;;;;4986949;28;20046;-64
2023/01/05 01:37:22;;;;;;;11.70;1.83;;;8.60;99.90;;;;;;4970600;28;20568;-64
2023/01/05 01:39:52;;;;;;;13.48;1.40;;;8.50;99.90;;;;;;4987891;28;20042;-62
2023/01/05 01:42:21;;;;;;;7.80;1.65;;;8.50;99.90;;;;;;4985227;28;20122;-61
2023/01/05 01:44:58;;;;;;;10.77;1.40;;;8.50;99.90;;;;;;5005111;28;20042;-57
2023/01/05 01:47:58;;;;;;;7.45;1.20;;;8.50;99.90;;;;;;4992281;28;20517;-58
2023/01/05 01:50:46;;;;;;;10.65;1.38;;;8.50;99.90;;;;;;4992696;28;20477;-58
2023/01/05 01:53:30;;;;;;;13.68;1.05;;;8.50;99.90;;;;;;5024364;28;20515;-60
2023/01/05 01:56:01;;;;;;;10.00;1.27;;;8.50;99.90;;;;;;4993511;28;20410;-60
2023/01/05 01:58:31;;;;;;;5.22;1.77;;;8.50;99.90;;;;;;5022124;28;20391;-63
2023/01/05 02:01:02;;;;;;;10.43;1.50;;;8.50;99.90;;;;;;4991367;28;20054;-64
2023/01/05 02:03:31;;;;;;;12.07;1.38;;;8.50;99.90;;;;;;4991787;28;20046;-63
2023/01/05 02:05:59;;;;;;;9.95;1.25;;;8.50;99.90;;;;;;5005747;28;20966;-63
2023/01/05 02:08:30;;;;;;;9.48;1.67;;;8.50;99.90;;;;;;4991711;28;20064;-59
2023/01/05 02:11:35;;;;;;;15.95;2.95;;;8.50;99.90;;;;;;4993131;28;20054;-63
2023/01/05 02:14:06;;;;;;;16.35;1.67;;;8.50;99.90;;;;;;4989338;28;20062;-63
2023/01/05 02:16:43;;;;;;;13.50;1.20;;;8.40;99.90;;;;;;5011056;28;20046;-62
2023/01/05 02:19:18;;;;;;;16.90;1.30;;;8.40;99.90;;;;;;5018947;28;20049;-63
2023/01/05 02:22:13;;;;;;;25.50;2.05;;;8.40;99.90;;;;;;5000858;28;20065;-58
2023/01/05 02:24:57;;;;;;;9.85;1.63;;;8.40;99.90;;;;;;4989497;28;20053;-61
2023/01/05 02:27:41;;;;;;;8.20;1.60;;;8.40;99.90;;;;;;4992379;28;20400;-60
2023/01/05 02:30:24;;;;;;;7.43;2.30;;;8.40;99.90;;;;;;4988581;28;20057;-59
2023/01/05 02:33:00;;;;;;;10.50;0.90;;;8.40;99.90;;;;;;5002983;28;20042;-58
2023/01/05 02:35:57;;;;;;;10.80;2.20;;;8.30;99.90;;;;;;5024944;28;20050;-59
2023/01/05 02:38:34;;;;;;;8.52;1.45;;;8.30;99.90;;;;;;5030536;28;20054;-57
2023/01/05 02:41:22;;;;;;;5.60;1.65;;;8.30;99.90;;;;;;4998027;28;20058;-58
2023/01/05 02:43:50;;;;;;;8.65;1.42;;;8.40;99.90;;;;;;4998462;28;20042;-59
2023/01/05 02:46:19;;;;;;;16.00;3.13;;;8.40;99.90;;;;;;4983099;28;20049;-57
2023/01/05 02:48:50;;;;;;;15.57;1.60;;;8.40;99.90;;;;;;5022439;28;20050;-57
2023/01/05 02:51:24;;;;;;;9.02;1.35;;;8.30;99.90;;;;;;4991586;28;20043;-59
2023/01/05 02:54:01;;;;;;;11.45;1.35;;;8.30;99.90;;;;;;4992778;28;20062;-58
2023/01/05 02:57:07;;;;;;;12.77;2.70;;;8.40;99.90;;;;;;4990944;28;20065;-58
2023/01/05 02:59:41;;;;;;;9.90;1.45;;;8.30;99.90;;;;;;5002403;28;20073;-58
2023/01/05 03:02:29;;;;;;;11.05;2.00;;;8.30;99.90;;;;;;4992097;28;20046;-58
2023/01/05 03:05:03;;;;;;;14.05;1.65;;;8.40;99.90;;;;;;4991683;28;20124;-57
2023/01/05 03:07:36;;;;;;;10.95;1.20;;;8.50;99.90;;;;;;5007313;28;20050;-60
2023/01/05 03:15:45;;;;;;;9.30;1.20;;;8.60;99.90;;;;;;4997484;28;20426;-58
2023/01/05 03:18:19;;;;;;;6.63;1.23;;;8.60;99.90;;;;;;5022734;28;20122;-57
2023/01/05 03:20:53;;;;;;;10.27;1.30;;;8.60;99.90;;;;;;5024294;28;20050;-58
2023/01/05 03:35:32;;;;;;;8.75;1.35;;;8.60;99.90;;;;;;5001951;28;20047;-58
2023/01/05 03:38:09;;;;;;;10.95;3.03;;;8.60;99.90;;;;;;5011589;28;20054;-64
2023/01/05 03:40:48;;;;;;;12.20;1.33;;;8.60;99.90;;;;;;5008199;28;20046;-59
2023/01/05 03:43:18;;;;;;;6.22;1.05;;;8.60;99.90;;;;;;5007247;28;20057;-56
2023/01/05 03:45:54;;;;;;;6.28;1.13;;;8.60;99.90;;;;;;5003622;28;20046;-57
2023/01/05 03:48:27;;;;;;;6.28;1.17;;;8.50;99.90;;;;;;5015974;28;20050;-59
2023/01/05 03:50:55;;;;;;;8.07;1.00;;;8.50;99.90;;;;;;4991986;28;20053;-58
2023/01/05 03:53:24;;;;;;;12.45;1.30;;;8.50;99.90;;;;;;4991386;28;20053;-58
2023/01/05 03:55:52;;;;;;;7.88;1.58;;;8.50;99.90;;;;;;5007995;28;20612;-57
2023/01/05 03:58:20;;;;;;;9.27;1.77;;;8.40;99.90;;;;;;4989856;28;20034;-57
2023/01/05 04:00:49;;;;;;;11.90;1.00;;;8.40;99.90;;;;;;5023452;28;20066;-58
2023/01/05 04:03:20;;;;;;;9.65;1.52;;;8.30;99.90;;;;;;4990268;28;20513;-58
2023/01/05 04:05:54;;;;;;;9.98;1.13;;;8.30;99.90;;;;;;4990762;28;20050;-59
2023/01/05 04:08:26;;;;;;;12.43;1.30;;;8.20;99.90;;;;;;4989387;28;20042;-58
2023/01/05 04:10:55;;;;;;;9.13;1.23;;;8.20;99.90;;;;;;4982293;28;20047;-59
2023/01/05 04:13:23;;;;;;;10.57;1.25;;;8.10;99.90;;;;;;4990990;28;20053;-58
2023/01/05 04:15:54;;;;;;;9.38;1.20;;;8.10;99.90;;;;;;5037751;28;20038;-57
2023/01/05 04:18:22;;;;;;;12.52;2.20;;;7.90;99.90;;;;;;5006029;28;20049;-59
2023/01/05 04:20:49;;;;;;;26.92;3.33;;;7.90;99.90;;;;;;4992435;28;20058;-58
2023/01/05 04:23:17;;;;;;;9.70;1.45;;;7.90;99.90;;;;;;4987344;28;20039;-57
2023/01/05 04:25:46;;;;;;;10.15;1.17;;;7.80;99.90;;;;;;5002292;28;20054;-57
2023/01/05 04:28:19;;;;;;;11.27;1.10;;;7.70;99.90;;;;;;4989985;28;20441;-59
2023/01/05 04:30:50;;;;;;;8.50;1.80;;;7.70;99.90;;;;;;4984704;28;20057;-58
2023/01/05 04:33:19;;;;;;;15.43;1.77;;;7.60;99.90;;;;;;4991070;28;20038;-58
2023/01/05 04:35:48;;;;;;;16.27;1.42;;;7.50;99.90;;;;;;4990684;28;20050;-58
2023/01/05 04:38:17;;;;;;;10.25;1.65;;;7.40;99.90;;;;;;5022096;28;20058;-58
2023/01/05 04:40:49;;;;;;;9.65;1.42;;;7.40;99.90;;;;;;4990251;28;20050;-59
2023/01/05 04:43:19;;;;;;;9.73;1.27;;;7.30;99.90;;;;;;5023827;28;20049;-58
2023/01/05 04:45:49;;;;;;;6.57;1.17;;;7.30;99.90;;;;;;4994655;28;20047;-61
2023/01/05 04:48:18;;;;;;;11.98;1.58;;;7.30;99.90;;;;;;4992070;28;20050;-58
2023/01/05 04:50:52;;;;;;;11.57;1.05;;;7.30;99.90;;;;;;5022864;28;20053;-59
2023/01/05 04:53:22;;;;;;;8.95;2.05;;;7.20;99.90;;;;;;4984770;28;20061;-60
2023/01/05 04:55:51;;;;;;;6.55;1.50;;;7.20;99.90;;;;;;4989604;28;20494;-59
2023/01/05 04:58:20;;;;;;;13.75;2.00;;;7.20;99.90;;;;;;4990556;28;20057;-58
2023/01/05 05:00:50;;;;;;;10.57;1.88;;;7.10;99.90;;;;;;5021891;28;20038;-62
2023/01/05 05:03:18;;;;;;;17.55;2.25;;;7.20;99.90;;;;;;4989924;28;20034;-58
2023/01/05 05:05:47;;;;;;;11.15;3.15;;;7.20;99.90;;;;;;4986104;28;20072;-58
2023/01/05 05:08:16;;;;;;;10.90;2.03;;;7.20;99.90;;;;;;5021370;28;20038;-57
2023/01/05 05:10:44;;;;;;;17.98;2.33;;;7.20;99.90;;;;;;4989629;28;20050;-58
2023/01/05 05:13:12;;;;;;;12.10;1.75;;;7.20;99.90;;;;;;4988202;28;20050;-58
2023/01/05 05:15:40;;;;;;;18.20;1.73;;;7.20;99.90;;;;;;5020377;28;20050;-58
2023/01/05 05:18:07;;;;;;;14.77;2.13;;;7.30;99.90;;;;;;4990611;28;20061;-58
2023/01/05 05:20:42;;;;;;;24.77;2.97;;;7.20;99.90;;;;;;4991896;28;20054;-58
2023/01/05 05:23:11;;;;;;;14.80;2.70;;;7.30;99.90;;;;;;4996387;28;20065;-58
2023/01/05 05:25:38;;;;;;;20.65;2.35;;;7.40;99.90;;;;;;4994937;28;20053;-58
2023/01/05 05:28:06;;;;;;;20.65;2.30;;;7.40;99.90;;;;;;4994500;28;20045;-59
2023/01/05 05:30:33;;;;;;;21.92;2.80;;;7.50;99.90;;;;;;4995736;28;20050;-59
2023/01/05 05:33:01;;;;;;;21.30;2.30;;;7.60;99.90;;;;;;4994869;28;20038;-56
2023/01/05 05:35:29;;;;;;;23.52;3.60;;;7.60;99.90;;;;;;4991350;28;20046;-58
2023/01/05 05:37:56;;;;;;;20.00;3.40;;;7.70;99.90;;;;;;4995714;28;20486;-59
2023/01/05 05:40:25;;;;;;;19.83;2.00;;;7.70;99.90;;;;;;4995610;28;20054;-59
2023/01/05 05:42:53;;;;;;;20.85;2.65;;;7.60;99.90;;;;;;4995556;28;20058;-60
2023/01/05 05:45:21;;;;;;;22.13;3.88;;;7.70;99.90;;;;;;5001228;28;20069;-58
2023/01/05 05:47:48;;;;;;;28.65;4.45;;;7.70;99.90;;;;;;4988051;28;20387;-58
2023/01/05 05:50:16;;;;;;;23.33;2.67;;;7.70;99.90;;;;;;4989974;28;20401;-58
2023/01/05 05:52:46;;;;;;;;;;;7.70;99.90;;;;;;4992668;28;20042;-60
2023/01/05 05:55:14;;;;;;;23.65;2.20;;;7.70;99.90;;;;;;4990047;28;19922;-58
2023/01/05 05:57:41;;;;;;;19.98;2.65;;;7.70;99.90;;;;;;4989104;28;20089;-57
2023/01/05 06:00:09;;;;;;;21.98;3.58;;;7.70;99.90;;;;;;4990432;28;20053;-58
2023/01/05 06:02:40;;;;;;;22.33;4.00;;;7.70;99.90;;;;;;4988393;28;20043;-58
2023/01/05 06:05:08;;;;;;;27.67;4.60;;;7.70;99.90;;;;;;4983838;28;20053;-58
2023/01/05 06:07:36;;;;;;;27.83;2.88;;;7.70;99.90;;;;;;4990291;28;20418;-58
2023/01/05 06:10:04;;;;;;;30.85;3.03;;;7.80;99.90;;;;;;4981888;28;20487;-61
2023/01/05 06:12:31;;;;;;;23.52;3.15;;;7.80;99.90;;;;;;4993159;28;20639;-58
2023/01/05 06:14:59;;;;;;;20.60;2.58;;;7.80;99.90;;;;;;4995011;28;20050;-60
2023/01/05 06:17:27;;;;;;;22.33;4.00;;;7.80;99.90;;;;;;4989576;28;20050;-59
2023/01/05 06:19:55;;;;;;;32.83;3.38;;;7.80;99.90;;;;;;4991654;28;20050;-59
2023/01/05 06:22:22;;;;;;;33.80;3.58;;;7.80;99.90;;;;;;4993015;28;20050;-57
2023/01/05 06:24:50;;;;;;;26.88;3.03;;;7.80;99.90;;;;;;4989766;28;20516;-59
2023/01/05 06:27:17;;;;;;;31.42;3.25;;;7.80;99.90;;;;;;4991011;28;20050;-57
2023/01/05 06:29:45;;;;;;;28.45;3.53;;;7.80;99.90;;;;;;4992315;28;20042;-58
2023/01/05 06:32:13;;;;;;;28.92;3.10;;;7.80;99.90;;;;;;5021566;28;20068;-57
2023/01/05 06:34:40;;;;;;;25.17;3.65;;;7.90;99.90;;;;;;4991609;28;20050;-58
2023/01/05 06:37:08;;;;;;;26.25;3.65;;;7.90;99.90;;;;;;4992293;28;20061;-58
2023/01/05 06:39:35;;;;;;;34.28;3.80;;;8.00;99.90;;;;;;4992416;28;20054;-58
2023/01/05 06:42:03;;;;;;;28.10;3.30;;;8.00;99.90;;;;;;4983734;28;20058;-57
2023/01/05 06:44:31;;;;;;;35.13;3.67;;;8.10;99.90;;;;;;4994222;28;20394;-57
2023/01/05 06:47:02;;;;;;;36.47;3.60;;;8.20;99.90;;;;;;4992379;28;20054;-58
2023/01/05 06:49:29;;;;;;;24.23;3.42;;;8.20;99.90;;;;;;4992586;28;20050;-60
2023/01/05 06:51:57;;;;;;;35.05;4.10;;;8.30;99.90;;;;;;4990175;28;20422;-59
2023/01/05 06:54:25;;;;;;;31.58;3.92;;;8.40;99.90;;;;;;4988234;28;20038;-57
2023/01/05 06:56:52;;;;;;;43.38;5.70;;;8.40;99.90;;;;;;4986801;28;20045;-57
2023/01/05 06:59:20;;;;;;;30.77;4.20;;;8.40;99.90;;;;;;5018014;28;20046;-57
2023/01/05 07:01:48;;;;;;;29.88;5.22;;;8.50;99.90;;;;;;4988937;28;20038;-57
2023/01/05 07:04:16;;;;;;;27.48;3.65;;;8.50;99.90;;;;;;4986019;28;20057;-57
2023/01/05 07:06:43;;;;;;;30.42;4.10;;;8.60;99.90;;;;;;4985662;28;20043;-58
2023/01/05 07:09:11;;;;;;;24.50;2.88;;;8.60;99.90;;;;;;4991421;28;20057;-59
2023/01/05 07:11:39;;;;;;;34.53;3.70;;;8.60;99.90;;;;;;4990702;28;20050;-58
2023/01/05 07:14:07;;;;;;;27.33;3.10;;;8.60;99.90;;;;;;4990845;28;20049;-57
2023/01/05 07:16:34;;;;;;;33.28;3.75;;;8.60;99.90;;;;;;4995867;28;20058;-58
2023/01/05 07:19:02;;;;;;;28.35;4.15;;;8.60;99.90;;;;;;4990753;28;20042;-58
2023/01/05 07:21:30;;;;;;;33.58;5.57;;;8.60;99.90;;;;;;4983845;28;20046;-59
2023/01/05 07:23:57;;;;;;;31.80;6.57;;;8.60;99.90;;;;;;4987355;28;20046;-61
2023/01/05 07:26:25;;;;;;;38.08;4.97;;;8.60;99.90;;;;;;4987503;28;20707;-60
2023/01/05 07:28:53;;;;;;;31.65;3.30;;;;;;;;;;4991947;28;20042;-59
2023/01/05 07:31:20;;;;;;;32.50;3.97;;;8.70;99.90;;;;;;4990498;28;20054;-59
2023/01/05 07:33:48;;;;;;;23.85;2.63;;;8.60;99.90;;;;;;4991540;28;20050;-59
2023/01/05 07:36:16;;;;;;;27.63;3.95;;;8.60;99.90;;;;;;4989659;28;20053;-61
2023/01/05 07:38:43;;;;;;;22.55;2.67;;;8.60;99.90;;;;;;4991440;28;20048;-58
2023/01/05 07:41:11;;;;;;;32.55;3.63;;;8.60;99.90;;;;;;4991690;28;20053;-58
2023/01/05 07:43:39;;;;;;;36.35;3.90;;;8.60;99.90;;;;;;4977917;28;20047;-57
2023/01/05 07:46:07;;;;;;;32.03;4.68;;;8.60;99.90;;;;;;4994696;28;20046;-58
2023/01/05 07:48:35;;;;;;;32.72;3.50;;;8.60;99.90;;;;;;5003343;28;20586;-58
2023/01/05 07:51:04;;;;;;;49.95;4.30;;;8.60;99.90;;;;;;5011041;28;20402;-57
2023/01/05 07:53:36;;;;;;;32.88;3.20;;;8.60;99.90;;;;;;4990378;28;20051;-59
2023/01/05 07:56:11;;;;;;;31.02;3.70;;;8.50;99.90;;;;;;4983511;28;20045;-58
2023/01/05 07:58:40;;;;;;;38.50;5.03;;;8.60;99.90;;;;;;4987934;28;20371;-60
2023/01/05 08:01:12;;;;;;;36.28;3.17;;;8.60;99.90;;;;;;4988747;28;20051;-58
2023/01/05 08:03:40;;;;;;;35.92;4.20;;;8.50;99.90;;;;;;4985043;28;20054;-57
2023/01/05 08:06:11;;;;;;;38.40;5.18;;;8.50;99.90;;;;;;4987227;28;20405;-57
2023/01/05 08:08:39;;;;;;;27.73;5.25;;;8.50;99.90;;;;;;4983166;28;20042;-57
2023/01/05 08:11:08;;;;;;;29.67;3.42;;;8.50;99.90;;;;;;4990221;28;20065;-57
2023/01/05 08:16:22;;;;;;;24.90;2.83;;;8.50;99.90;;;;;;4985803;28;20046;-58
2023/01/05 08:18:50;;;;;;;29.60;3.70;;;8.50;99.90;;;;;;4987582;28;20498;-60
2023/01/05 08:21:18;;;;;;;30.80;3.67;;;8.50;99.90;;;;;;4990941;28;20064;-59
2023/01/05 08:23:46;;;;;;;31.40;3.00;;;8.50;99.90;;;;;;4987901;28;20050;-59
2023/01/05 08:26:17;;;;;;;24.45;4.25;;;8.60;99.90;;;;;;4988507;28;20046;-64
2023/01/05 08:28:45;;;;;;;22.20;3.40;;;8.50;99.90;;;;;;4988895;28;20047;-63
2023/01/05 08:31:19;;;;;;;28.63;4.13;;;8.60;99.90;;;;;;4985844;28;20054;-64
2023/01/05 08:33:47;;;;;;;17.73;2.90;;;8.50;99.90;;;;;;4988578;28;20053;-62
2023/01/05 08:36:18;;;;;;;25.00;3.65;;;8.60;99.90;;;;;;4990014;28;20053;-63
2023/01/05 08:38:47;;;;;;;27.30;4.13;;;8.60;99.90;;;;;;5000066;28;20042;-62
2023/01/05 08:41:17;;;;;;;26.87;2.67;;;8.60;99.90;;;;;;4985663;28;20066;-63
2023/01/05 08:43:52;;;;;;;27.42;3.58;;;8.70;99.90;;;;;;4990616;28;20490;-64
2023/01/05 08:46:22;;;;;;;19.40;3.03;;;8.70;99.90;;;;;;4992825;28;20054;-64
2023/01/05 08:48:51;;;;;;;23.85;2.83;;;8.70;99.90;;;;;;4987996;28;20065;-64
2023/01/05 08:51:19;;;;;;;18.13;2.53;;;8.70;99.90;;;;;;4989382;28;20061;-62
2023/01/05 08:53:47;;;;;;;20.63;2.70;;;8.80;99.90;;;;;;5004801;28;20471;-63
2023/01/05 08:56:15;;;;;;;26.00;3.00;;;8.80;99.90;;;;;;4991609;28;20042;-63
2023/01/05 08:58:43;;;;;;;26.55;3.88;;;8.80;99.90;;;;;;4987545;28;20046;-64
2023/01/05 09:01:14;;;;;;;21.00;3.40;;;8.80;99.90;;;;;;4990351;28;20047;-62
2023/01/05 09:03:42;;;;;;;18.83;4.88;;;8.80;99.90;;;;;;4986329;28;20046;-63
2023/01/05 09:06:11;;;;;;;21.73;4.32;;;8.90;99.90;;;;;;4987340;28;20054;-62
2023/01/05 09:08:40;;;;;;;20.88;3.78;;;8.90;99.90;;;;;;5001933;28;20073;-63
2023/01/05 09:11:18;;;;;;;25.35;3.50;;;8.90;99.90;;;;;;4988522;28;20049;-57
2023/01/05 09:13:57;;;;;;;18.13;3.35;;;8.90;99.90;;;;;;4986450;28;20046;-63
2023/01/05 09:16:28;;;;;;;25.25;4.45;;;9.00;99.90;;;;;;4990344;28;20049;-62
2023/01/05 09:19:16;;;;;;;22.08;3.30;;;9.00;99.90;;;;;;5004786;28;20069;-63
2023/01/05 09:21:43;;;;;;;17.95;3.22;;;9.00;99.90;;;;;;4988774;28;20047;-62
2023/01/05 09:24:11;;;;;;;18.13;2.85;;;9.10;99.90;;;;;;5002225;28;20413;-63
2023/01/05 09:26:40;;;;;;;17.08;2.50;;;9.10;99.90;;;;;;4988654;28;20613;-60
2023/01/05 09:29:09;;;;;;;17.10;1.95;;;9.20;99.90;;;;;;4985877;28;20047;-60
2023/01/05 09:31:38;;;;;;;15.00;2.33;;;9.20;99.90;;;;;;4989153;28;20054;-60
2023/01/05 09:34:06;;;;;;;23.00;3.13;;;9.30;99.90;;;;;;5001825;28;20371;-59
2023/01/05 09:36:35;;;;;;;20.30;2.33;;;9.30;99.90;;;;;;4990306;28;20050;-58
2023/01/05 09:39:04;;;;;;;18.02;3.05;;;9.40;99.90;;;;;;4987851;28;20054;-59
2023/01/05 09:41:46;;;;;;;14.10;3.17;;;9.40;99.90;;;;;;4984303;28;20053;-57
2023/01/05 09:44:32;;;;;;;13.80;2.10;;;9.40;99.90;;;;;;4981618;28;20386;-59
2023/01/05 09:47:13;;;;;;;13.20;1.98;;;9.50;99.90;;;;;;4986433;28;20413;-58
2023/01/05 09:49:41;;;;;;;16.60;3.20;;;9.50;99.90;;;;;;4984080;28;20038;-60
2023/01/05 09:52:10;;;;;;;9.13;2.03;;;9.50;99.90;;;;;;4989688;28;20513;-60
2023/01/05 09:54:39;;;;;;;21.23;2.58;;;9.60;99.90;;;;;;4988835;28;20050;-62
2023/01/05 09:57:18;;;;;;;12.55;2.20;;;9.60;99.90;;;;;;4989026;28;20406;-62
2023/01/05 09:59:59;;;;;;;19.15;2.28;;;9.60;99.90;;;;;;4986368;28;20057;-63
2023/01/05 10:02:35;;;;;;;18.50;2.47;;;9.60;99.90;;;;;;4988922;28;20055;-60
2023/01/05 10:05:05;;;;;;;10.52;1.98;;;9.70;99.90;;;;;;4982868;28;20057;-59
2023/01/05 10:07:37;;;;;;;7.78;1.88;;;9.60;99.90;;;;;;4986597;28;20061;-58
2023/01/05 10:10:19;;;;;;;10.32;2.10;;;9.70;99.90;;;;;;4992104;28;20042;-62
2023/01/05 10:13:01;;;;;;;16.10;2.00;;;9.70;99.90;;;;;;4993066;28;20058;-58
2023/01/05 10:15:35;;;;;;;14.15;3.15;;;9.80;99.90;;;;;;4992097;28;20050;-60
2023/01/05 10:18:12;;;;;;;13.63;2.55;;;9.90;99.90;;;;;;4992349;28;20046;-58
2023/01/05 10:20:48;;;;;;;9.93;2.17;;;9.80;99.90;;;;;;4991247;28;20049;-60
2023/01/05 10:23:34;;;;;;;11.00;1.73;;;9.90;99.90;;;;;;4981378;28;20046;-60
2023/01/05 10:26:20;;;;;;;16.50;2.97;;;9.90;99.90;;;;;;4987380;28;20043;-62
2023/01/05 10:29:12;;;;;;;13.05;2.00;;;9.90;99.90;;;;;;4993202;28;20042;-58
2023/01/05 10:31:44;;;;;;;14.80;2.72;;;9.90;99.90;;;;;;4991155;28;20055;-59
2023/01/05 10:34:36;;;;;;;10.30;1.75;;;10.00;99.90;;;;;;4987728;28;20499;-63
2023/01/05 10:37:09;;;;;;;6.07;2.55;;;10.00;99.90;;;;;;4990276;28;20062;-61
2023/01/05 10:39:54;;;;;;;7.97;1.80;;;10.10;99.90;;;;;;4989559;28;20050;-60
2023/01/05 10:42:39;;;;;;;14.13;2.28;;;10.10;99.90;;;;;;4987271;28;20057;-61
2023/01/05 10:45:12;;;;;;;9.15;2.30;;;10.20;99.90;;;;;;4999729;28;20038;-62
2023/01/05 10:47:40;;;;;;;10.15;2.70;;;10.20;99.90;;;;;;4997105;28;20049;-61
2023/01/05 10:50:33;;;;;;;9.98;1.67;;;10.30;99.90;;;;;;4995421;28;20046;-58
2023/01/05 10:53:28;;;;;;;8.80;2.45;;;10.30;99.90;;;;;;4992433;28;20050;-63
2023/01/05 10:56:06;;;;;;;8.70;1.70;;;10.30;99.90;;;;;;4989488;28;20053;-58
2023/01/05 10:58:37;;;;;;;7.88;1.88;;;10.30;99.90;;;;;;4985153;28;20050;-58
2023/01/05 11:01:27;;;;;;;11.32;3.13;;;10.40;99.90;;;;;;4989818;28;20057;-60
2023/01/05 11:04:01;;;;;;;;;;;10.40;99.90;;;;;;4981569;28;20054;-59
2023/01/05 11:06:50;;;;;;;7.07;1.52;;;10.40;99.90;;;;;;4986994;28;19929;-57
2023/01/05 11:09:21;;;;;;;10.00;2.13;;;10.50;99.90;;;;;;4989269;28;20402;-58
2023/01/05 11:12:00;;;;;;;10.10;2.72;;;10.50;99.90;;;;;;4991660;28;20292;-61
2023/01/05 11:14:32;;;;;;;8.53;2.20;;;10.50;99.90;;;;;;4973307;28;20050;-58
2023/01/05 11:17:06;;;;;;;8.57;1.88;;;10.60;99.90;;;;;;4988863;28;20303;-60
2023/01/05 11:19:44;;;;;;;10.52;1.80;;;10.60;99.90;;;;;;5004069;28;20054;-60
2023/01/05 11:22:43;;;;;;;11.15;1.70;;;10.70;99.90;;;;;;4986738;28;20061;-62
2023/01/05 11:25:24;;;;;;;6.65;1.33;;;10.80;99.90;;;;;;4973543;28;20061;-59
2023/01/05 11:28:13;;;;;;;5.47;1.30;;;10.90;99.90;;;;;;4991374;28;20049;-59
2023/01/05 11:31:00;;;;;;;8.77;2.38;;;10.90;99.90;;;;;;4985595;28;20058;-59
2023/01/05 11:33:32;;;;;;;12.38;1.85;;;10.90;99.90;;;;;;4984613;28;20054;-59
2023/01/05 11:36:03;;;;;;;7.97;1.13;;;11.00;99.90;;;;;;4992402;28;20410;-60
2023/01/05 11:38:31;;;;;;;6.47;1.23;;;11.00;99.90;;;;;;4991182;28;20387;-64
2023/01/05 11:41:00;;;;;;;5.60;0.90;;;11.10;99.90;;;;;;4989994;28;20069;-64
2023/01/05 11:43:31;;;;;;;7.80;1.35;;;11.10;99.90;;;;;;4990067;28;20053;-64
2023/01/05 11:46:03;;;;;;;9.55;1.00;;;11.20;99.90;;;;;;5004723;28;20186;-64
2023/01/05 11:48:34;;;;;;;4.13;1.00;;;11.30;99.90;;;;;;5011476;28;20418;-63
2023/01/05 11:51:02;;;;;;;3.92;2.13;;;11.30;99.90;;;;;;5005811;28;20380;-58
2023/01/05 11:53:33;;;;;;;4.53;1.10;;;11.40;99.90;;;;;;4972202;28;20593;-60
2023/01/05 11:56:03;;;;;;;8.90;1.75;;;11.40;99.90;;;;;;4987945;28;20042;-59
2023/01/05 11:58:53;;;;;;;6.03;1.13;;;11.40;99.90;;;;;;4990819;28;20050;-58
2023/01/05 12:01:43;;;;;;;7.68;1.88;;;11.20;99.90;;;;;;4988855;28;20043;-58
2023/01/05 12:04:30;;;;;;;7.68;1.27;;;11.50;99.90;;;;;;5000563;28;20042;-60
2023/01/05 12:07:30;;;;;;;6.13;2.53;;;11.50;99.90;;;;;;4986420;28;20486;-65
2023/01/05 12:10:13;;;;;;;9.50;1.13;;;11.60;99.90;;;;;;4973175;28;20050;-58
2023/01/05 12:13:02;;;;;;;6.82;1.40;;;11.60;99.90;;;;;;4984734;28;20518;-63
2023/01/05 12:15:30;;;;;;;8.82;2.40;;;11.60;99.90;;;;;;5016085;28;20042;-58
2023/01/05 12:18:09;;;;;;;4.82;1.85;;;11.70;99.90;;;;;;4986940;28;20049;-61
2023/01/05 12:20:46;;;;;;;8.55;1.70;;;11.70;99.90;;;;;;4988329;28;20051;-59
2023/01/05 12:23:47;;;;;;;7.63;1.30;;;11.70;99.90;;;;;;4989386;28;20053;-61
2023/01/05 12:26:25;;;;;;;3.65;1.00;;;11.70;99.90;;;;;;4981945;28;20042;-60
2023/01/05 12:29:22;;;;;;;6.15;1.23;;;11.80;99.90;;;;;;4982496;28;21420;-59
2023/01/05 12:32:28;;;;;;;5.82;1.17;;;11.80;99.90;;;;;;4983519;28;20042;-59
2023/01/05 12:35:18;;;;;;;11.93;1.67;;;11.90;99.90;;;;;;4988694;28;20057;-59
2023/01/05 12:38:20;;;;;;;8.80;1.50;;;11.90;99.90;;;;;;5000885;28;20043;-61
2023/01/05 12:40:55;;;;;;;5.07;1.00;;;11.90;99.90;;;;;;4980549;28;20034;-59
2023/01/05 12:43:44;;;;;;;5.95;1.15;;;11.90;99.90;;;;;;5004353;28;20064;-59
2023/01/05 12:46:40;;;;;;;9.25;1.38;;;11.90;99.90;;;;;;4988417;28;20042;-58
2023/01/05 12:49:15;;;;;;;7.45;1.20;;;11.90;99.90;;;;;;4989154;28;20053;-59
2023/01/05 12:51:56;;;;;;;11.70;1.60;;;11.90;99.90;;;;;;4984206;28;20042;-57
2023/01/05 12:54:49;;;;;;;13.02;2.05;;;11.90;99.90;;;;;;4991346;28;20057;-59
2023/01/05 12:57:34;;;;;;;7.28;1.55;;;11.90;99.90;;;;;;4988147;28;20034;-58
2023/01/05 13:00:14;;;;;;;13.75;1.95;;;11.90;99.90;;;;;;4987384;28;20046;-60
2023/01/05 13:03:02;;;;;;;16.42;1.90;;;11.90;99.90;;;;;;5001579;28;20498;-59
2023/01/05 13:05:37;;;;;;;16.25;1.90;;;11.80;99.90;;;;;;4992546;28;20505;-59
2023/01/05 13:08:19;;;;;;;11.95;1.60;;;11.80;99.90;;;;;;4983115;28;20054;-61
2023/01/05 13:11:06;;;;;;;11.45;2.38;;;11.70;99.90;;;;;;4977603;28;20050;-59
2023/01/05 13:13:39;;;;;;;11.45;1.85;;;11.70;99.90;;;;;;4999266;28;20418;-59
2023/01/05 13:16:27;;;;;;;6.80;1.40;;;11.70;99.90;;;;;;5009709;28;20042;-59
2023/01/05 13:19:17;;;;;;;10.93;2.10;;;11.70;99.90;;;;;;5004413;28;20042;-60
2023/01/05 13:21:46;;;;;;;8.40;1.40;;;11.70;99.90;;;;;;4997677;28;20525;-60
2023/01/05 13:24:27;;;;;;;4.65;1.17;;;11.70;99.90;;;;;;4994091;28;20125;-57
2023/01/05 13:26:56;;;;;;;6.00;1.45;;;11.60;99.90;;;;;;5001891;28;20050;-58
2023/01/05 13:29:35;;;;;;;9.27;2.60;;;11.60;99.90;;;;;;4990591;28;20065;-58
2023/01/05 13:32:35;;;;;;;10.32;1.55;;;11.50;99.90;;;;;;4990094;28;20054;-58
2023/01/05 13:35:15;;;;;;;6.90;1.60;;;11.40;99.90;;;;;;4977475;28;20054;-59
2023/01/05 13:38:05;;;;;;;10.18;1.60;;;11.30;99.90;;;;;;5008272;28;20077;-58
2023/01/05 13:40:33;;;;;;;10.98;1.75;;;11.30;99.90;;;;;;5002177;28;20046;-59
2023/01/05 13:43:30;;;;;;;7.28;1.42;;;11.30;99.90;;;;;;5003835;28;20401;-58
2023/01/05 13:46:07;;;;;;;8.82;1.33;;;11.40;99.90;;;;;;5006168;28;20048;-58
2023/01/05 13:49:07;;;;;;;10.55;1.80;;;11.50;99.90;;;;;;5001987;28;20061;-59
2023/01/05 13:51:50;;;;;;;13.55;2.60;;;11.60;99.90;;;;;;4991636;28;20609;-59
2023/01/05 13:54:37;;;;;;;13.77;2.97;;;11.70;99.90;;;;;;4997431;28;20054;-60